createdAt,value
2022-12-10T00:00:25.603Z,96379.03
2022-12-10T00:02:33.334Z,96375.97
2022-12-10T00:04:45.111Z,96365.34
2022-12-10T00:06:55.857Z,96361.31
2022-12-10T00:09:04.034Z,96355.56
2022-12-10T00:11:17.540Z,96357.47
2022-12-10T00:13:25.609Z,96348.69
2022-12-10T00:15:33.454Z,96344.09
2022-12-10T00:17:41.314Z,96344.63
2022-12-10T00:19:50.253Z,96340.38
2022-12-10T00:21:58.184Z,96348.84
2022-12-10T00:24:07.439Z,96342.06
2022-12-10T00:26:21.225Z,96334.06
2022-12-10T00:28:30.062Z,96329.75
2022-12-10T00:30:38.446Z,96318.81
2022-12-10T00:32:46.539Z,96323.69
2022-12-10T00:34:56.287Z,96324.44
2022-12-10T00:37:04.108Z,96328.22
2022-12-10T00:39:12.737Z,96330.91
2022-12-10T00:41:24.581Z,96333.84
2022-12-10T00:43:32.454Z,96334.38
2022-12-10T00:45:40.678Z,96343.06
2022-12-10T00:47:49.691Z,96343.41
2022-12-10T00:49:58.047Z,96350.69
2022-12-10T00:52:06.892Z,96335.44
2022-12-10T00:54:15.066Z,96344.50
2022-12-10T00:56:27.683Z,96346.84
2022-12-10T00:58:36.900Z,96348.69
2022-12-10T01:00:44.989Z,96353.00
2022-12-10T01:02:52.892Z,96357.22
2022-12-10T01:05:01.326Z,96351.94
2022-12-10T01:07:11.445Z,96355.44
2022-12-10T01:09:24.813Z,96356.06
2022-12-10T01:11:39.432Z,96364.63
2022-12-10T01:13:49.774Z,96372.88
2022-12-10T01:15:57.700Z,96372.19
2022-12-10T01:18:07.258Z,96372.88
2022-12-10T01:20:17.109Z,96369.72
2022-12-10T01:22:25.433Z,96376.72
2022-12-10T01:24:33.620Z,96383.19
2022-12-10T01:26:44.158Z,96386.75
2022-12-10T01:28:52.866Z,96391.38
2022-12-10T01:31:04.579Z,96392.53
2022-12-10T01:33:13.740Z,96395.53
2022-12-10T01:35:21.767Z,96394.94
2022-12-10T01:37:30.676Z,96391.44
2022-12-10T01:39:38.495Z,96394.06
2022-12-10T01:41:51.615Z,96401.22
2022-12-10T01:44:01.964Z,96403.06
2022-12-10T01:46:11.282Z,96414.41
2022-12-10T01:48:19.708Z,96415.31
2022-12-10T01:50:28.758Z,96426.66
2022-12-10T01:52:36.744Z,96414.91
2022-12-10T01:54:47.702Z,96422.16
2022-12-10T01:57:02.839Z,96423.63
2022-12-10T01:59:10.926Z,96423.81
2022-12-10T02:01:29.736Z,96422.09
2022-12-10T02:03:46.229Z,96414.84
2022-12-10T02:06:01.897Z,96403.31
2022-12-10T02:08:16.997Z,96406.84
2022-12-10T02:10:34.312Z,96405.72
2022-12-10T02:12:51.112Z,96406.28
2022-12-10T02:15:02.937Z,96411.47
2022-12-10T02:17:17.247Z,96406.72
2022-12-10T02:19:45.232Z,96407.38
2022-12-10T02:21:57.254Z,96411.09
2022-12-10T02:24:12.205Z,96414.78
2022-12-10T02:26:26.949Z,96417.41
2022-12-10T02:28:44.484Z,96419.19
2022-12-10T02:30:57.911Z,96416.81
2022-12-10T02:33:09.989Z,96410.31
2022-12-10T02:35:23.729Z,96407.72
2022-12-10T02:37:38.198Z,96401.69
2022-12-10T02:39:50.269Z,96397.69
2022-12-10T02:42:03.993Z,96400.38
2022-12-10T02:44:17.692Z,96391.78
2022-12-10T02:46:31.550Z,96403.97
2022-12-10T02:48:44.844Z,96390.88
2022-12-10T02:50:53.057Z,96394.44
2022-12-10T02:53:01.098Z,96390.22
2022-12-10T02:55:10.202Z,96385.97
2022-12-10T02:57:40.487Z,96379.88
2022-12-10T03:00:06.449Z,96376.97
2022-12-10T03:02:33.438Z,96362.88
2022-12-10T03:04:50.674Z,96372.78
2022-12-10T03:07:05.705Z,96371.56
2022-12-10T03:09:21.364Z,96375.25
2022-12-10T03:11:30.526Z,96380.19
2022-12-10T03:13:42.837Z,96377.09
2022-12-10T03:15:53.671Z,96377.66
2022-12-10T03:18:10.100Z,96366.19
2022-12-10T03:20:20.388Z,96361.56
2022-12-10T03:22:28.292Z,96363.94
2022-12-10T03:24:39.077Z,96362.50
2022-12-10T03:26:50.872Z,96361.66
2022-12-10T03:29:05.439Z,96369.03
2022-12-10T03:31:17.090Z,96370.25
2022-12-10T03:33:27.832Z,96369.94
2022-12-10T03:35:37.049Z,96361.25
2022-12-10T03:37:45.341Z,96342.97
2022-12-10T03:39:53.359Z,96356.06
2022-12-10T03:42:02.366Z,96347.47
2022-12-10T03:44:11.105Z,96348.63
2022-12-10T03:46:18.911Z,96338.63
2022-12-10T03:48:29.639Z,96345.91
2022-12-10T03:50:37.766Z,96342.00
2022-12-10T03:52:45.729Z,96339.84
2022-12-10T03:54:53.537Z,96358.25
2022-12-10T03:57:01.433Z,96370.19
2022-12-10T03:59:09.314Z,96376.50
2022-12-10T04:01:17.645Z,96377.59
2022-12-10T04:03:25.489Z,96378.91
2022-12-10T04:05:36.276Z,96387.19
2022-12-10T04:07:44.384Z,96403.69
2022-12-10T04:09:52.496Z,96397.53
2022-12-10T04:12:02.237Z,96396.94
2022-12-10T04:14:24.317Z,96391.06
2022-12-10T04:16:31.558Z,96393.50
2022-12-10T04:18:40.587Z,96394.31
2022-12-10T04:21:03.651Z,96405.00
2022-12-10T04:23:24.791Z,96406.69
2022-12-10T04:25:45.003Z,96400.97
2022-12-10T04:27:52.751Z,96404.84
2022-12-10T04:30:01.956Z,96409.53
2022-12-10T04:32:10.565Z,96407.13
2022-12-10T04:34:18.397Z,96405.91
2022-12-10T04:36:29.015Z,96419.34
2022-12-10T04:38:37.117Z,96421.78
2022-12-10T04:40:45.660Z,96416.63
2022-12-10T04:42:53.994Z,96413.88
2022-12-10T04:45:01.879Z,96420.84
2022-12-10T04:47:11.447Z,96420.22
2022-12-10T04:49:19.675Z,96422.25
2022-12-10T04:51:30.582Z,96424.88
2022-12-10T04:53:38.576Z,96431.34
2022-12-10T04:55:48.203Z,96429.19
2022-12-10T04:57:56.512Z,96430.78
2022-12-10T05:00:04.381Z,96425.94
2022-12-10T05:02:12.860Z,96425.16
2022-12-10T05:04:21.283Z,96416.94
2022-12-10T05:06:32.020Z,96419.56
2022-12-10T05:08:42.078Z,96421.88
2022-12-10T05:10:50.326Z,96421.97
2022-12-10T05:12:58.128Z,96426.03
2022-12-10T05:15:06.898Z,96421.38
2022-12-10T05:17:15.094Z,96425.94
2022-12-10T05:19:24.605Z,96419.38
2022-12-10T05:21:47.640Z,96421.97
2022-12-10T05:23:56.674Z,96421.97
2022-12-10T05:26:05.892Z,96422.19
2022-12-10T05:28:15.066Z,96419.63
2022-12-10T05:30:23.055Z,96411.69
2022-12-10T05:32:31.125Z,96415.00
2022-12-10T05:34:39.227Z,96425.41
2022-12-10T05:36:50.482Z,96425.41
2022-12-10T05:39:01.436Z,96437.03
2022-12-10T05:41:11.725Z,96430.38
2022-12-10T05:43:20.244Z,96423.63
2022-12-10T05:45:29.639Z,96424.22
2022-12-10T05:47:37.363Z,96421.47
2022-12-10T05:49:50.700Z,96422.31
2022-12-10T05:52:02.894Z,96426.72
2022-12-10T05:54:11.411Z,96435.63
2022-12-10T05:56:22.107Z,96433.41
2022-12-10T05:58:31.409Z,96437.16
2022-12-10T06:00:39.304Z,96438.72
2022-12-10T06:02:47.170Z,96442.22
2022-12-10T06:04:55.444Z,96451.50
2022-12-10T06:07:10.992Z,96444.81
2022-12-10T06:09:20.421Z,96443.94
2022-12-10T06:11:31.390Z,96444.16
2022-12-10T06:13:42.162Z,96453.16
2022-12-10T06:15:51.425Z,96460.00
2022-12-10T06:17:59.634Z,96455.69
2022-12-10T06:20:11.884Z,96451.94
2022-12-10T06:22:22.888Z,96457.59
2022-12-10T06:24:32.523Z,96464.06
2022-12-10T06:26:40.512Z,96454.38
2022-12-10T06:28:49.762Z,96460.19
2022-12-10T06:30:57.605Z,96458.28
2022-12-10T06:33:05.785Z,96463.56
2022-12-10T06:35:15.180Z,96465.03
2022-12-10T06:37:26.645Z,96469.81
2022-12-10T06:39:35.481Z,96466.25
2022-12-10T06:41:46.562Z,96473.97
2022-12-10T06:43:54.732Z,96477.88
2022-12-10T06:46:03.332Z,96477.03
2022-12-10T06:48:12.230Z,96470.28
2022-12-10T06:50:20.216Z,96472.56
2022-12-10T06:52:32.211Z,96477.91
2022-12-10T06:54:40.519Z,96482.94
2022-12-10T06:56:48.529Z,96487.84
2022-12-10T06:58:56.892Z,96480.28
2022-12-10T07:01:09.334Z,96486.06
2022-12-10T07:03:17.390Z,96477.44
2022-12-10T07:05:25.560Z,96483.09
2022-12-10T07:07:36.196Z,96481.66
2022-12-10T07:09:43.956Z,96489.88
2022-12-10T07:11:51.771Z,96493.41
2022-12-10T07:14:00.995Z,96488.94
2022-12-10T07:16:16.434Z,96501.19
2022-12-10T07:18:24.864Z,96502.81
2022-12-10T07:20:34.470Z,96500.91
2022-12-10T07:22:44.868Z,96495.56
2022-12-10T07:24:52.964Z,96503.31
2022-12-10T07:27:01.082Z,96503.31
2022-12-10T07:29:13.539Z,96500.53
2022-12-10T07:31:21.637Z,96502.59
2022-12-10T07:33:29.592Z,96511.59
2022-12-10T07:35:37.524Z,96509.41
2022-12-10T07:37:47.933Z,96514.91
2022-12-10T07:39:56.827Z,96514.34
2022-12-10T07:42:05.775Z,96514.75
2022-12-10T07:44:15.469Z,96519.78
2022-12-10T07:46:25.874Z,96517.88
2022-12-10T07:48:33.682Z,96515.69
2022-12-10T07:50:41.519Z,96514.63
2022-12-10T07:52:52.000Z,96521.63
2022-12-10T07:54:59.811Z,96528.66
2022-12-10T07:57:08.954Z,96522.97
2022-12-10T07:59:16.720Z,96524.19
2022-12-10T08:01:27.237Z,96532.22
2022-12-10T08:03:35.159Z,96535.69
2022-12-10T08:05:43.470Z,96543.78
2022-12-10T08:08:00.384Z,96546.19
2022-12-10T08:10:11.175Z,96548.91
2022-12-10T08:12:19.468Z,96551.81
2022-12-10T08:14:28.882Z,96544.50
2022-12-10T08:16:36.824Z,96551.16
2022-12-10T08:18:45.180Z,96553.94
2022-12-10T08:20:53.295Z,96552.47
2022-12-10T08:23:03.973Z,96554.88
2022-12-10T08:25:12.118Z,96552.00
2022-12-10T08:27:20.004Z,96555.28
2022-12-10T08:29:28.482Z,96553.31
2022-12-10T08:31:38.192Z,96553.09
2022-12-10T08:33:46.447Z,96552.38
2022-12-10T08:35:54.602Z,96557.28
2022-12-10T08:38:05.354Z,96562.97
2022-12-10T08:40:14.615Z,96567.59
2022-12-10T08:42:22.533Z,96569.88
2022-12-10T08:44:31.385Z,96573.25
2022-12-10T08:46:39.315Z,96576.53
2022-12-10T08:48:47.623Z,96575.59
2022-12-10T08:50:55.770Z,96578.47
2022-12-10T08:53:07.918Z,96583.28
2022-12-10T08:55:16.856Z,96577.88
2022-12-10T08:57:24.689Z,96582.81
2022-12-10T08:59:32.766Z,96586.06
2022-12-10T09:01:40.613Z,96587.00
2022-12-10T09:03:51.133Z,96596.72
2022-12-10T09:05:58.893Z,96593.03
2022-12-10T09:08:10.191Z,96596.75
2022-12-10T09:10:18.474Z,96599.38
2022-12-10T09:12:27.079Z,96597.28
2022-12-10T09:14:35.995Z,96600.09
2022-12-10T09:16:44.195Z,96596.75
2022-12-10T09:18:54.330Z,96607.00
2022-12-10T09:21:03.915Z,96605.84
2022-12-10T09:23:15.877Z,96616.97
2022-12-10T09:25:24.005Z,96612.03
2022-12-10T09:27:32.302Z,96613.19
2022-12-10T09:29:40.710Z,96612.97
2022-12-10T09:31:48.656Z,96612.03
2022-12-10T09:33:58.161Z,96617.25
2022-12-10T09:36:08.219Z,96618.63
2022-12-10T09:38:18.950Z,96626.41
2022-12-10T09:40:37.538Z,96625.53
2022-12-10T09:42:55.235Z,96622.78
2022-12-10T09:45:09.273Z,96619.78
2022-12-10T09:47:17.575Z,96627.34
2022-12-10T09:49:37.492Z,96624.50
2022-12-10T09:51:45.388Z,96630.81
2022-12-10T09:53:59.712Z,96621.84
2022-12-10T09:56:09.572Z,96620.19
2022-12-10T09:58:26.218Z,96628.25
2022-12-10T10:00:41.013Z,96625.50
2022-12-10T10:02:49.692Z,96618.31
2022-12-10T10:05:14.128Z,96618.16
2022-12-10T10:07:25.739Z,96623.25
2022-12-10T10:09:43.704Z,96626.78
2022-12-10T10:11:52.530Z,96627.56
2022-12-10T10:14:03.800Z,96622.56
2022-12-10T10:16:30.486Z,96621.00
2022-12-10T10:18:43.711Z,96627.34
2022-12-10T10:20:52.617Z,96620.53
2022-12-10T10:23:03.901Z,96622.09
2022-12-10T10:25:18.546Z,96623.91
2022-12-10T10:27:33.157Z,96625.09
2022-12-10T10:29:42.146Z,96618.09
2022-12-10T10:31:52.083Z,96615.50
2022-12-10T10:34:03.479Z,96610.75
2022-12-10T10:36:13.026Z,96607.75
2022-12-10T10:38:25.758Z,96610.66
2022-12-10T10:40:44.976Z,96610.16
2022-12-10T10:42:56.551Z,96620.13
2022-12-10T10:45:06.601Z,96615.28
2022-12-10T10:47:34.356Z,96615.50
2022-12-10T10:49:48.497Z,96618.38
2022-12-10T10:51:58.108Z,96628.72
2022-12-10T10:54:08.479Z,96635.84
2022-12-10T10:56:23.733Z,96638.91
2022-12-10T10:58:32.412Z,96644.00
2022-12-10T11:00:40.585Z,96644.00
2022-12-10T11:02:49.825Z,96637.44
2022-12-10T11:05:00.225Z,96644.41
2022-12-10T11:07:17.492Z,96648.16
2022-12-10T11:09:31.948Z,96654.03
2022-12-10T11:11:45.273Z,96653.88
2022-12-10T11:13:53.631Z,96653.41
2022-12-10T11:16:05.594Z,96654.16
2022-12-10T11:18:29.856Z,96649.41
2022-12-10T11:20:42.393Z,96649.31
2022-12-10T11:22:55.581Z,96653.88
2022-12-10T11:25:04.980Z,96648.31
2022-12-10T11:27:21.345Z,96653.72
2022-12-10T11:29:45.833Z,96660.00
2022-12-10T11:32:14.928Z,96661.53
2022-12-10T11:34:30.378Z,96657.22
2022-12-10T11:36:44.995Z,96657.22
2022-12-10T11:39:06.758Z,96656.97
2022-12-10T11:41:22.225Z,96658.50
2022-12-10T11:43:49.033Z,96656.72
2022-12-10T11:46:26.293Z,96653.69
2022-12-10T11:48:48.017Z,96644.94
2022-12-10T11:51:02.026Z,96645.00
2022-12-10T11:53:29.601Z,96648.03
2022-12-10T11:55:57.013Z,96650.47
2022-12-10T11:58:27.097Z,96646.63
2022-12-10T12:00:45.262Z,96649.19
2022-12-10T12:03:21.776Z,96647.81
2022-12-10T12:05:44.688Z,96636.97
2022-12-10T12:08:04.174Z,96634.91
2022-12-10T12:10:53.384Z,96634.56
2022-12-10T12:13:05.039Z,96637.28
2022-12-10T12:15:25.271Z,96647.56
2022-12-10T12:17:42.043Z,96652.19
2022-12-10T12:19:54.187Z,96653.88
2022-12-10T12:22:14.230Z,96646.22
2022-12-10T12:24:25.797Z,96655.66
2022-12-10T12:26:38.925Z,96665.22
2022-12-10T12:28:51.865Z,96679.97
2022-12-10T12:31:06.084Z,96675.94
2022-12-10T12:33:24.458Z,96678.72
2022-12-10T12:35:41.698Z,96672.56
2022-12-10T12:37:57.064Z,96673.00
2022-12-10T12:40:14.713Z,96683.38
2022-12-10T12:42:31.213Z,96677.25
2022-12-10T12:44:50.321Z,96677.44
2022-12-10T12:46:58.518Z,96685.13
2022-12-10T12:49:16.689Z,96685.66
2022-12-10T12:51:30.919Z,96680.53
2022-12-10T12:53:42.733Z,96680.91
2022-12-10T12:56:04.135Z,96688.50
2022-12-10T12:58:27.167Z,96692.91
2022-12-10T13:00:37.295Z,96699.19
2022-12-10T13:02:57.753Z,96702.66
2022-12-10T13:05:09.301Z,96701.56
2022-12-10T13:07:33.167Z,96709.94
2022-12-10T13:09:47.681Z,96710.22
2022-12-10T13:12:30.151Z,96715.00
2022-12-10T13:14:39.873Z,96707.88
2022-12-10T13:16:54.196Z,96706.19
2022-12-10T13:19:28.366Z,96706.59
2022-12-10T13:21:39.135Z,96701.44
2022-12-10T13:23:56.461Z,96712.06
2022-12-10T13:26:05.601Z,96706.72
2022-12-10T13:28:31.897Z,96703.56
2022-12-10T13:30:40.276Z,96699.16
2022-12-10T13:32:51.966Z,96707.06
2022-12-10T13:35:26.989Z,96712.91
2022-12-10T13:37:39.461Z,96718.41
2022-12-10T13:39:52.803Z,96728.22
2022-12-10T13:42:43.112Z,96726.38
2022-12-10T13:44:52.704Z,96721.25
2022-12-10T13:47:04.435Z,96731.72
2022-12-10T13:49:23.577Z,96731.00
2022-12-10T13:51:58.733Z,96730.25
2022-12-10T13:54:23.838Z,96734.09
2022-12-10T13:56:40.584Z,96734.25
2022-12-10T13:58:54.787Z,96738.84
2022-12-10T14:01:13.616Z,96731.97
2022-12-10T14:03:48.878Z,96748.22
2022-12-10T14:06:13.165Z,96747.84
2022-12-10T14:08:26.131Z,96754.38
2022-12-10T14:10:40.955Z,96761.44
2022-12-10T14:12:49.893Z,96758.19
2022-12-10T14:15:01.357Z,96767.47
2022-12-10T14:17:13.690Z,96766.00
2022-12-10T14:19:23.189Z,96767.16
2022-12-10T14:21:35.998Z,96768.97
2022-12-10T14:23:51.908Z,96777.00
2022-12-10T14:26:11.088Z,96776.31
2022-12-10T14:28:21.858Z,96776.16
2022-12-10T14:30:32.003Z,96776.06
2022-12-10T14:32:42.433Z,96772.03
2022-12-10T14:34:55.648Z,96775.53
2022-12-10T14:37:07.353Z,96771.03
2022-12-10T14:39:19.672Z,96779.72
2022-12-10T14:41:39.217Z,96779.91
2022-12-10T14:43:48.913Z,96786.72
2022-12-10T14:46:00.454Z,96785.50
2022-12-10T14:48:10.526Z,96793.72
2022-12-10T14:50:20.549Z,96788.09
2022-12-10T14:52:36.570Z,96802.69
2022-12-10T14:54:45.037Z,96800.34
2022-12-10T14:56:58.489Z,96801.16
2022-12-10T14:59:11.017Z,96809.72
2022-12-10T15:01:24.942Z,96810.88
2022-12-10T15:03:37.133Z,96811.13
2022-12-10T15:05:46.305Z,96807.94
2022-12-10T15:07:58.506Z,96809.13
2022-12-10T15:10:15.218Z,96809.59
2022-12-10T15:12:33.921Z,96813.94
2022-12-10T15:14:41.958Z,96813.63
2022-12-10T15:16:50.884Z,96815.81
2022-12-10T15:18:59.401Z,96818.09
2022-12-10T15:21:09.821Z,96818.00
2022-12-10T15:23:23.646Z,96820.34
2022-12-10T15:25:32.957Z,96822.25
2022-12-10T15:27:43.338Z,96818.06
2022-12-10T15:29:52.321Z,96819.22
2022-12-10T15:32:03.880Z,96813.97
2022-12-10T15:34:16.709Z,96814.97
2022-12-10T15:36:31.592Z,96817.69
2022-12-10T15:38:44.270Z,96819.41
2022-12-10T15:40:52.124Z,96811.69
2022-12-10T15:43:17.311Z,96822.41
2022-12-10T15:45:28.936Z,96822.75
2022-12-10T15:47:39.625Z,96826.34
2022-12-10T15:49:48.642Z,96820.25
2022-12-10T15:51:56.679Z,96825.66
2022-12-10T15:54:05.657Z,96821.94
2022-12-10T15:56:13.560Z,96831.56
2022-12-10T15:58:24.026Z,96824.47
2022-12-10T16:00:31.776Z,96821.28
2022-12-10T16:02:43.444Z,96829.69
2022-12-10T16:04:52.374Z,96828.78
2022-12-10T16:07:00.167Z,96833.66
2022-12-10T16:09:08.311Z,96830.28
2022-12-10T16:11:21.411Z,96840.88
2022-12-10T16:13:36.054Z,96844.63
2022-12-10T16:15:48.542Z,96841.06
2022-12-10T16:17:59.304Z,96850.03
2022-12-10T16:20:27.119Z,96847.47
2022-12-10T16:22:34.836Z,96839.72
2022-12-10T16:24:45.212Z,96841.94
2022-12-10T16:26:53.448Z,96843.19
2022-12-10T16:29:03.861Z,96836.38
2022-12-10T16:31:14.856Z,96845.19
2022-12-10T16:33:25.466Z,96849.25
2022-12-10T16:35:34.687Z,96855.47
2022-12-10T16:37:42.726Z,96852.00
2022-12-10T16:39:54.493Z,96860.03
2022-12-10T16:42:06.127Z,96861.38
2022-12-10T16:44:16.571Z,96874.97
2022-12-10T16:46:27.392Z,96873.28
2022-12-10T16:48:35.326Z,96878.44
2022-12-10T16:50:44.990Z,96884.84
2022-12-10T16:52:54.369Z,96887.38
2022-12-10T16:55:03.496Z,96884.81
2022-12-10T16:57:14.944Z,96890.09
2022-12-10T16:59:25.354Z,96885.41
2022-12-10T17:01:36.358Z,96886.34
2022-12-10T17:03:47.450Z,96887.88
2022-12-10T17:05:58.321Z,96887.03
2022-12-10T17:08:18.594Z,96896.25
2022-12-10T17:10:47.272Z,96901.25
2022-12-10T17:12:55.127Z,96904.53
2022-12-10T17:15:11.557Z,96902.28
2022-12-10T17:17:21.983Z,96904.25
2022-12-10T17:19:31.461Z,96907.84
2022-12-10T17:21:39.484Z,96902.66
2022-12-10T17:23:47.795Z,96905.31
2022-12-10T17:25:56.076Z,96910.16
2022-12-10T17:28:05.418Z,96920.31
2022-12-10T17:30:19.572Z,96914.47
2022-12-10T17:32:27.509Z,96916.63
2022-12-10T17:34:36.165Z,96915.16
2022-12-10T17:36:45.193Z,96920.75
2022-12-10T17:38:52.996Z,96926.56
2022-12-10T17:41:00.811Z,96921.31
2022-12-10T17:43:08.902Z,96925.88
2022-12-10T17:45:22.764Z,96922.31
2022-12-10T17:47:33.499Z,96917.44
2022-12-10T17:49:41.904Z,96926.28
2022-12-10T17:51:50.607Z,96928.66
2022-12-10T17:53:58.944Z,96921.84
2022-12-10T17:56:13.761Z,96923.81
2022-12-10T17:58:24.299Z,96922.16
2022-12-10T18:00:38.241Z,96924.78
2022-12-10T18:02:47.005Z,96932.59
2022-12-10T18:04:55.786Z,96931.47
2022-12-10T18:07:07.685Z,96925.63
2022-12-10T18:09:20.400Z,96927.13
2022-12-10T18:11:33.897Z,96930.44
2022-12-10T18:13:47.493Z,96926.94
2022-12-10T18:15:58.968Z,96925.41
2022-12-10T18:18:08.331Z,96919.53
2022-12-10T18:20:25.407Z,96926.47
2022-12-10T18:22:33.641Z,96928.38
2022-12-10T18:24:43.092Z,96926.00
2022-12-10T18:26:52.603Z,96916.47
2022-12-10T18:29:02.652Z,96915.28
2022-12-10T18:31:17.367Z,96922.97
2022-12-10T18:33:26.257Z,96924.13
2022-12-10T18:35:34.333Z,96926.94
2022-12-10T18:37:43.001Z,96925.34
2022-12-10T18:39:50.826Z,96927.00
2022-12-10T18:41:59.460Z,96923.28
2022-12-10T18:44:07.568Z,96929.25
2022-12-10T18:46:21.335Z,96923.28
2022-12-10T18:48:29.262Z,96923.38
2022-12-10T18:50:38.638Z,96923.84
2022-12-10T18:52:47.664Z,96932.13
2022-12-10T18:54:55.560Z,96932.22
2022-12-10T18:57:32.445Z,96931.22
2022-12-10T18:59:32.615Z,96932.88
2022-12-10T19:01:43.100Z,96934.44
2022-12-10T19:03:51.267Z,96938.63
2022-12-10T19:05:59.417Z,96935.50
2022-12-10T19:08:08.293Z,96942.50
2022-12-10T19:10:19.762Z,96943.84
2022-12-10T19:12:27.615Z,96942.06
2022-12-10T19:14:38.302Z,96943.06
2022-12-10T19:16:50.178Z,96938.91
2022-12-10T19:19:02.211Z,96942.50
2022-12-10T19:21:11.862Z,96944.28
2022-12-10T19:23:20.114Z,96946.81
2022-12-10T19:25:29.296Z,96941.50
2022-12-10T19:27:39.006Z,96941.72
2022-12-10T19:29:47.616Z,96936.56
2022-12-10T19:31:59.735Z,96937.06
2022-12-10T19:34:08.301Z,96947.34
2022-12-10T19:36:22.466Z,96945.50
2022-12-10T19:38:30.999Z,96944.97
2022-12-10T19:40:39.830Z,96943.81
2022-12-10T19:42:47.741Z,96946.44
2022-12-10T19:44:55.695Z,96954.66
2022-12-10T19:47:06.266Z,96949.88
2022-12-10T19:49:15.402Z,96951.50
2022-12-10T19:51:24.782Z,96954.03
2022-12-10T19:53:33.126Z,96949.06
2022-12-10T19:55:40.944Z,96954.25
2022-12-10T19:57:50.135Z,96951.25
2022-12-10T19:59:58.549Z,96956.06
2022-12-10T20:02:09.941Z,96947.22
2022-12-10T20:04:20.453Z,96946.75
2022-12-10T20:06:33.041Z,96944.13
2022-12-10T20:08:41.541Z,96946.66
2022-12-10T20:10:49.706Z,96942.63
2022-12-10T20:12:57.734Z,96942.66
2022-12-10T20:15:06.011Z,96948.66
2022-12-10T20:17:20.440Z,96953.41
2022-12-10T20:19:28.387Z,96951.69
2022-12-10T20:21:36.616Z,96962.03
2022-12-10T20:23:45.096Z,96957.84
2022-12-10T20:25:53.421Z,96962.13
2022-12-10T20:28:02.632Z,96960.59
2022-12-10T20:30:11.796Z,96965.66
2022-12-10T20:32:22.385Z,96965.81
2022-12-10T20:34:30.691Z,96965.50
2022-12-10T20:36:41.355Z,96963.84
2022-12-10T20:38:49.502Z,96973.72
2022-12-10T20:40:58.818Z,96969.28
2022-12-10T20:43:06.717Z,96973.84
2022-12-10T20:45:14.811Z,96970.81
2022-12-10T20:47:25.613Z,96972.69
2022-12-10T20:49:33.433Z,96974.16
2022-12-10T20:51:41.940Z,96973.31
2022-12-10T20:53:50.786Z,96978.88
2022-12-10T20:55:59.147Z,96974.22
2022-12-10T20:58:07.476Z,96973.59
2022-12-10T21:00:21.986Z,96972.72
2022-12-10T21:02:32.595Z,96976.97
2022-12-10T21:04:41.316Z,96976.91
2022-12-10T21:06:49.973Z,96978.00
2022-12-10T21:08:59.514Z,96980.09
2022-12-10T21:11:07.695Z,96975.91
2022-12-10T21:13:16.057Z,96975.59
2022-12-10T21:15:25.544Z,96981.31
2022-12-10T21:17:37.684Z,96973.81
2022-12-10T21:19:45.561Z,96971.22
2022-12-10T21:21:53.634Z,96972.25
2022-12-10T21:24:01.534Z,96970.47
2022-12-10T21:26:09.456Z,96966.97
2022-12-10T21:28:18.076Z,96973.09
2022-12-10T21:30:25.877Z,96968.56
2022-12-10T21:32:36.762Z,96970.00
2022-12-10T21:34:45.972Z,96971.28
2022-12-10T21:36:54.613Z,96964.66
2022-12-10T21:39:03.135Z,96973.31
2022-12-10T21:41:25.052Z,96970.84
2022-12-10T21:43:33.432Z,96969.81
2022-12-10T21:45:45.689Z,96971.69
2022-12-10T21:48:02.537Z,96970.22
2022-12-10T21:50:10.628Z,96973.09
2022-12-10T21:52:18.818Z,96969.44
2022-12-10T21:54:27.533Z,96967.16
2022-12-10T21:56:35.466Z,96968.50
2022-12-10T21:58:43.846Z,96967.75
2022-12-10T22:00:59.761Z,96973.78
2022-12-10T22:03:10.250Z,96965.63
2022-12-10T22:05:22.411Z,96965.50
2022-12-10T22:07:30.487Z,96963.66
2022-12-10T22:09:38.545Z,96962.44
2022-12-10T22:11:46.528Z,96964.06
2022-12-10T22:13:57.689Z,96977.47
2022-12-10T22:16:05.857Z,96970.28
2022-12-10T22:18:17.097Z,96971.81
2022-12-10T22:20:25.305Z,96964.84
2022-12-10T22:22:33.703Z,96968.09
2022-12-10T22:24:41.607Z,96969.00
2022-12-10T22:26:49.387Z,96977.13
2022-12-10T22:28:57.495Z,96971.38
2022-12-10T22:31:09.723Z,96979.44
2022-12-10T22:33:20.159Z,96975.97
2022-12-10T22:35:28.482Z,96980.91
2022-12-10T22:37:36.332Z,96985.84
2022-12-10T22:39:44.256Z,96981.59
2022-12-10T22:41:52.235Z,96982.31
2022-12-10T22:44:01.516Z,96984.38
2022-12-10T22:46:10.687Z,96987.38
2022-12-10T22:48:22.281Z,96982.41
2022-12-10T22:50:30.402Z,96989.50
2022-12-10T22:52:38.447Z,96979.22
2022-12-10T22:54:46.404Z,96982.31
2022-12-10T22:56:54.533Z,96984.09
2022-12-10T22:59:02.402Z,96986.00
2022-12-10T23:01:11.966Z,96983.75
2022-12-10T23:03:22.725Z,96984.56
2022-12-10T23:05:30.927Z,96986.97
2022-12-10T23:07:39.071Z,96984.38
2022-12-10T23:09:47.634Z,96983.53
2022-12-10T23:12:08.443Z,96978.69
2022-12-10T23:14:16.443Z,96975.91
2022-12-10T23:16:35.222Z,96980.06
2022-12-10T23:18:50.341Z,96976.38
2022-12-10T23:20:59.224Z,96974.50
2022-12-10T23:23:09.229Z,96975.41
2022-12-10T23:25:26.191Z,96972.00
2022-12-10T23:28:01.545Z,96978.38
2022-12-10T23:30:15.231Z,96968.75
2022-12-10T23:32:41.409Z,96976.03
2022-12-10T23:34:51.913Z,96973.44
2022-12-10T23:37:03.346Z,96977.91
2022-12-10T23:39:11.258Z,96981.69
2022-12-10T23:41:19.124Z,96988.44
2022-12-10T23:43:26.976Z,96984.34
2022-12-10T23:45:34.913Z,96980.63
2022-12-10T23:47:42.764Z,96974.47
2022-12-10T23:49:54.191Z,96981.72
2022-12-10T23:52:09.159Z,96986.63
2022-12-10T23:54:18.241Z,96976.91
2022-12-10T23:56:26.056Z,96979.53
2022-12-10T23:58:35.656Z,96971.81
